createdAt,value
2019-04-22T00:01:25.203Z,104.35
2019-04-22T00:03:55.187Z,103.78
2019-04-22T00:06:48.390Z,95.65
2019-04-22T00:09:20.916Z,93.12
2019-04-22T00:11:59.252Z,96.05
2019-04-22T00:14:14.167Z,97.12
2019-04-22T00:17:13.696Z,89.05
2019-04-22T00:19:23.504Z,91.90
2019-04-22T00:21:46.079Z,89.80
2019-04-22T00:24:16.989Z,83.50
2019-04-22T00:26:50.038Z,83.55
2019-04-22T00:32:05.606Z,71.95
2019-04-22T00:34:34.177Z,66.53
2019-04-22T00:37:11.628Z,55.52
2019-04-22T00:39:51.441Z,50.08
2019-04-22T00:42:10.043Z,46.65
2019-04-22T00:44:43.213Z,41.90
2019-04-22T00:47:07.733Z,39.65
2019-04-22T00:50:09.269Z,39.15
2019-04-22T00:52:09.299Z,39.55
2019-04-22T00:54:47.330Z,36.70
2019-04-22T00:57:09.161Z,35.98
2019-04-22T00:59:42.115Z,35.33
2019-04-22T01:02:16.455Z,32.38
2019-04-22T01:07:11.663Z,31.40
2019-04-22T01:09:49.356Z,29.07
2019-04-22T01:12:14.883Z,27.85
2019-04-22T01:14:41.696Z,28.55
2019-04-22T01:17:11.978Z,26.23
2019-04-22T01:19:52.366Z,25.08
2019-04-22T01:22:17.452Z,24.63
2019-04-22T01:24:38.718Z,23.98
2019-04-22T01:27:08.731Z,24.12
2019-04-22T01:29:39.879Z,22.93
2019-04-22T01:31:56.444Z,23.02
2019-04-22T01:34:40.474Z,24.18
2019-04-22T01:37:14.082Z,22.55
2019-04-22T01:39:49.802Z,20.50
2019-04-22T01:42:21.901Z,22.82
2019-04-22T01:44:50.957Z,22.55
2019-04-22T01:47:25.102Z,23.10
2019-04-22T01:49:53.863Z,20.57
2019-04-22T01:52:20.311Z,21.42
2019-04-22T01:55:02.095Z,21.48
2019-04-22T01:57:22.677Z,21.80
2019-04-22T01:59:45.789Z,23.92
2019-04-22T02:02:30.885Z,25.00
2019-04-22T02:04:59.853Z,23.92
2019-04-22T02:07:29.284Z,23.47
2019-04-22T02:09:55.577Z,23.52
2019-04-22T02:12:25.786Z,23.80
2019-04-22T02:14:57.262Z,23.98
2019-04-22T02:17:31.612Z,23.57
2019-04-22T02:20:03.990Z,21.68
2019-04-22T02:22:47.522Z,20.00
2019-04-22T02:25:04.633Z,20.32
2019-04-22T02:27:40.318Z,20.82
2019-04-22T02:29:58.347Z,19.20
2019-04-22T02:33:01.948Z,19.40
2019-04-22T02:37:35.781Z,19.40
2019-04-22T02:42:49.203Z,18.67
2019-04-22T02:47:36.093Z,20.35
2019-04-22T02:50:05.200Z,19.40
2019-04-22T02:55:07.192Z,18.98
2019-04-22T03:00:19.469Z,19.80
2019-04-22T03:02:54.674Z,19.10
2019-04-22T03:07:48.964Z,18.77
2019-04-22T03:10:18.920Z,18.85
2019-04-22T03:12:35.215Z,18.02
2019-04-22T03:15:07.489Z,18.57
2019-04-22T03:20:10.584Z,18.92
2019-04-22T03:25:42.401Z,18.60
2019-04-22T03:27:40.147Z,20.17
2019-04-22T03:30:41.931Z,21.02
2019-04-22T03:47:50.949Z,25.85
2019-04-22T03:52:56.132Z,27.35
2019-04-22T03:57:50.053Z,27.90
2019-04-22T04:00:26.512Z,30.55
2019-04-22T04:02:56.030Z,30.32
2019-04-22T04:05:33.434Z,32.42
2019-04-22T04:07:54.694Z,30.17
2019-04-22T04:12:56.177Z,30.62
2019-04-22T04:15:23.562Z,30.15
2019-04-22T04:17:53.847Z,30.15
2019-04-22T04:23:05.344Z,29.40
2019-04-22T04:35:33.167Z,28.95
2019-04-22T04:40:26.834Z,25.75
2019-04-22T04:43:07.785Z,24.77
2019-04-22T04:47:57.877Z,23.57
2019-04-22T04:50:25.303Z,21.27
2019-04-22T04:55:28.568Z,21.85
2019-04-22T04:58:19.348Z,20.17
2019-04-22T05:03:08.121Z,19.62
2019-04-22T05:05:35.290Z,19.48
2019-04-22T05:10:44.986Z,17.65
2019-04-22T05:18:16.692Z,15.05
2019-04-22T05:22:51.589Z,14.75
2019-04-22T05:25:23.622Z,13.65
2019-04-22T05:27:57.657Z,14.38
2019-04-22T05:30:26.668Z,13.80
2019-04-22T05:32:59.530Z,13.28
2019-04-22T05:35:26.236Z,14.00
2019-04-22T05:38:05.094Z,12.95
2019-04-22T05:40:28.213Z,13.58
2019-04-22T05:43:16.258Z,12.50
2019-04-22T05:45:43.095Z,12.20
2019-04-22T05:48:18.735Z,13.18
2019-04-22T05:50:54.298Z,11.85
2019-04-22T05:53:13.195Z,12.30
2019-04-22T05:55:58.523Z,11.55
2019-04-22T05:58:18.810Z,11.15
2019-04-22T06:01:24.851Z,11.18
2019-04-22T06:03:20.984Z,11.93
2019-04-22T06:05:55.689Z,11.53
2019-04-22T06:08:25.648Z,11.90
2019-04-22T06:11:04.293Z,12.18
2019-04-22T06:13:23.292Z,12.43
2019-04-22T06:15:59.114Z,11.33
2019-04-22T06:21:09.372Z,11.78
2019-04-22T06:23:34.511Z,12.05
2019-04-22T06:26:14.719Z,11.38
2019-04-22T06:28:40.759Z,12.82
2019-04-22T06:33:34.627Z,11.15
2019-04-22T06:36:03.717Z,11.57
2019-04-22T06:38:35.632Z,11.08
2019-04-22T06:41:09.233Z,11.55
2019-04-22T06:43:35.225Z,11.53
2019-04-22T06:46:08.396Z,11.25
2019-04-22T06:48:36.571Z,11.20
2019-04-22T06:51:06.463Z,10.98
2019-04-22T06:53:37.287Z,11.25
2019-04-22T06:56:05.087Z,11.33
2019-04-22T06:58:36.578Z,11.33
2019-04-22T07:01:09.496Z,10.32
2019-04-22T07:03:52.040Z,10.50
2019-04-22T07:06:07.398Z,10.43
2019-04-22T07:09:07.837Z,10.60
2019-04-22T07:11:04.826Z,9.95
2019-04-22T07:13:43.228Z,10.20
2019-04-22T07:16:13.265Z,10.15
2019-04-22T07:18:44.771Z,12.90
2019-04-22T07:21:10.396Z,9.23
2019-04-22T07:24:14.595Z,9.28
2019-04-22T07:26:08.736Z,9.93
2019-04-22T07:28:37.251Z,9.10
2019-04-22T07:31:10.350Z,9.63
2019-04-22T07:33:47.537Z,9.00
2019-04-22T07:38:45.552Z,9.23
2019-04-22T07:41:17.263Z,8.78
2019-04-22T07:44:10.275Z,8.08
2019-04-22T07:46:18.496Z,9.18
2019-04-22T07:48:51.968Z,8.15
2019-04-22T07:51:25.039Z,8.38
2019-04-22T07:53:48.938Z,8.70
2019-04-22T07:56:18.442Z,8.60
2019-04-22T07:58:51.246Z,8.78
2019-04-22T08:01:25.069Z,9.35
2019-04-22T08:04:01.877Z,11.20
2019-04-22T08:06:26.501Z,9.28
2019-04-22T08:09:00.337Z,9.25
2019-04-22T08:11:37.578Z,8.68
2019-04-22T08:13:52.744Z,7.70
2019-04-22T08:16:24.950Z,7.83
2019-04-22T08:19:03.093Z,8.63
2019-04-22T08:21:22.010Z,7.15
2019-04-22T08:23:58.627Z,7.00
2019-04-22T08:26:30.368Z,6.20
2019-04-22T08:29:02.290Z,6.65
2019-04-22T08:34:01.752Z,7.15
2019-04-22T08:36:32.276Z,6.45
2019-04-22T08:39:08.229Z,6.75
2019-04-22T08:41:41.531Z,6.30
2019-04-22T08:44:26.194Z,6.62
2019-04-22T08:46:53.597Z,5.90
2019-04-22T08:49:16.189Z,6.22
2019-04-22T08:51:49.486Z,6.60
2019-04-22T08:54:18.001Z,5.40
2019-04-22T08:56:49.435Z,6.37
2019-04-22T08:59:19.847Z,6.12
2019-04-22T09:01:54.668Z,5.62
2019-04-22T09:04:17.925Z,5.00
2019-04-22T09:09:28.480Z,5.85
2019-04-22T09:11:54.622Z,5.05
2019-04-22T09:14:32.412Z,5.55
2019-04-22T09:16:55.860Z,4.50
2019-04-22T09:19:24.068Z,4.60
2019-04-22T09:22:00.504Z,3.92
2019-04-22T09:24:32.576Z,3.90
2019-04-22T09:26:54.528Z,4.00
2019-04-22T09:29:34.397Z,4.70
2019-04-22T09:32:05.595Z,4.95
2019-04-22T09:34:33.905Z,4.67
2019-04-22T09:37:06.035Z,4.45
2019-04-22T09:39:34.648Z,4.72
2019-04-22T09:42:05.193Z,4.97
2019-04-22T09:44:36.536Z,4.58
2019-04-22T09:47:07.395Z,5.22
2019-04-22T09:49:46.884Z,6.10
2019-04-22T09:52:07.359Z,4.28
2019-04-22T09:57:01.534Z,4.33
2019-04-22T09:59:34.898Z,5.15
2019-04-22T10:02:21.948Z,4.72
2019-04-22T10:04:39.807Z,4.58
2019-04-22T10:07:11.133Z,4.90
2019-04-22T10:09:51.766Z,4.80
2019-04-22T10:12:10.397Z,5.08
2019-04-22T10:14:40.030Z,5.80
2019-04-22T10:17:06.725Z,4.47
2019-04-22T10:19:39.239Z,5.22
2019-04-22T10:22:16.041Z,4.95
2019-04-22T10:24:39.281Z,4.25
2019-04-22T10:27:07.997Z,4.08
2019-04-22T10:29:52.247Z,3.80
2019-04-22T10:32:07.041Z,3.65
2019-04-22T10:34:28.313Z,3.98
2019-04-22T10:36:52.702Z,3.75
2019-04-22T10:39:18.301Z,3.87
2019-04-22T10:41:48.480Z,3.87
2019-04-22T10:44:17.491Z,3.50
2019-04-22T10:46:49.660Z,4.40
2019-04-22T10:49:18.495Z,4.12
2019-04-22T10:51:48.604Z,4.22
2019-04-22T10:54:17.747Z,3.80
2019-04-22T10:56:46.534Z,3.83
2019-04-22T10:59:16.335Z,3.75
2019-04-22T11:01:46.523Z,3.62
2019-04-22T11:04:15.385Z,3.62
2019-04-22T11:06:52.331Z,3.33
2019-04-22T11:09:14.432Z,4.50
2019-04-22T11:11:51.066Z,3.40
2019-04-22T11:14:14.701Z,3.90
2019-04-22T11:16:43.655Z,3.42
2019-04-22T11:19:13.777Z,3.83
2019-04-22T11:21:44.573Z,3.17
2019-04-22T11:24:13.032Z,3.40
2019-04-22T11:26:43.149Z,4.33
2019-04-22T11:29:12.107Z,3.77
2019-04-22T11:31:42.120Z,3.10
2019-04-22T11:34:11.147Z,3.17
2019-04-22T11:36:40.855Z,3.98
2019-04-22T11:39:11.636Z,3.25
2019-04-22T11:41:40.332Z,3.58
2019-04-22T11:44:09.573Z,3.87
2019-04-22T11:46:39.201Z,4.58
2019-04-22T11:49:08.172Z,3.50
2019-04-22T11:51:38.069Z,3.15
2019-04-22T11:54:07.269Z,3.95
2019-04-22T11:56:36.965Z,5.50
2019-04-22T11:59:06.742Z,4.95
2019-04-22T12:01:37.007Z,3.60
2019-04-22T12:04:07.443Z,5.12
2019-04-22T12:06:37.769Z,7.42
2019-04-22T12:09:11.958Z,4.83
2019-04-22T12:11:40.985Z,5.22
2019-04-22T12:14:09.782Z,4.67
2019-04-22T12:16:39.670Z,4.00
2019-04-22T12:19:09.216Z,3.40
2019-04-22T12:21:39.365Z,2.72
2019-04-22T12:24:09.076Z,3.52
2019-04-22T12:26:40.045Z,3.70
2019-04-22T12:29:08.957Z,3.22
2019-04-22T12:31:39.807Z,2.70
2019-04-22T12:34:08.974Z,3.20
2019-04-22T12:36:38.474Z,2.92
2019-04-22T12:39:09.658Z,2.80
2019-04-22T12:41:38.514Z,2.58
2019-04-22T12:44:07.574Z,3.00
2019-04-22T12:46:36.573Z,2.75
2019-04-22T12:49:05.456Z,2.87
2019-04-22T12:51:34.203Z,2.27
2019-04-22T12:54:03.342Z,2.90
2019-04-22T12:56:33.407Z,2.40
2019-04-22T12:59:03.862Z,2.52
2019-04-22T13:01:33.093Z,2.42
2019-04-22T13:04:08.989Z,3.00
2019-04-22T13:06:32.502Z,2.55
2019-04-22T13:09:02.186Z,2.60
2019-04-22T13:11:34.847Z,2.80
2019-04-22T13:14:02.962Z,2.75
2019-04-22T13:16:33.045Z,2.80
2019-04-22T13:19:09.086Z,2.95
2019-04-22T13:21:33.096Z,2.72
2019-04-22T13:24:02.800Z,2.83
2019-04-22T13:26:31.975Z,2.80
2019-04-22T13:29:01.070Z,3.12
2019-04-22T13:31:30.904Z,2.70
2019-04-22T13:34:03.546Z,2.50
2019-04-22T13:36:31.703Z,3.05
2019-04-22T13:39:00.834Z,2.85
2019-04-22T13:44:00.052Z,2.95
2019-04-22T13:46:31.728Z,2.90
2019-04-22T13:49:31.168Z,3.00
2019-04-22T13:52:00.996Z,2.90
2019-04-22T13:54:17.150Z,2.85
2019-04-22T13:57:07.887Z,3.08
2019-04-22T13:59:11.497Z,2.92
2019-04-22T14:01:50.584Z,3.00
2019-04-22T14:04:24.763Z,3.02
2019-04-22T14:06:54.610Z,3.42
2019-04-22T14:09:24.446Z,3.40
2019-04-22T14:11:58.253Z,2.98
2019-04-22T14:14:23.993Z,2.60
2019-04-22T14:16:53.270Z,2.65
2019-04-22T14:19:23.601Z,2.80
2019-04-22T14:21:53.620Z,3.30
2019-04-22T14:24:23.724Z,2.72
2019-04-22T14:27:08.552Z,2.90
2019-04-22T14:29:23.901Z,3.08
2019-04-22T14:32:04.332Z,2.87
2019-04-22T14:34:24.276Z,2.27
2019-04-22T14:36:53.313Z,2.83
2019-04-22T14:39:22.014Z,2.70
2019-04-22T14:42:08.317Z,2.90
2019-04-22T14:45:15.197Z,3.00
2019-04-22T14:47:15.838Z,2.85
2019-04-22T14:49:41.998Z,2.67
2019-04-22T14:52:15.239Z,2.70
2019-04-22T14:54:37.673Z,2.60
2019-04-22T14:56:54.220Z,2.50
2019-04-22T14:59:25.038Z,2.70
2019-04-22T15:01:54.145Z,2.55
2019-04-22T15:04:24.063Z,1.98
2019-04-22T15:06:52.924Z,2.62
2019-04-22T15:09:21.865Z,2.20
2019-04-22T15:12:00.744Z,2.52
2019-04-22T15:14:21.523Z,2.25
2019-04-22T15:17:10.992Z,2.70
2019-04-22T15:19:45.468Z,2.90
2019-04-22T15:22:14.639Z,2.10
2019-04-22T15:24:44.901Z,2.45
2019-04-22T15:27:14.170Z,2.37
2019-04-22T15:29:45.139Z,2.40
2019-04-22T15:32:15.529Z,1.87
2019-04-22T15:34:44.328Z,2.20
2019-04-22T15:37:13.965Z,2.10
2019-04-22T15:39:43.710Z,2.33
2019-04-22T15:42:20.907Z,3.02
2019-04-22T15:44:44.204Z,2.12
2019-04-22T15:47:13.306Z,2.20
2019-04-22T15:49:42.255Z,2.20
2019-04-22T15:52:12.388Z,2.15
2019-04-22T15:54:41.632Z,2.00
2019-04-22T15:57:10.819Z,1.90
2019-04-22T15:59:59.293Z,2.20
2019-04-22T16:02:11.689Z,2.40
2019-04-22T16:04:41.089Z,2.40
2019-04-22T16:07:10.857Z,2.72
2019-04-22T16:09:39.656Z,2.12
2019-04-22T16:12:16.335Z,2.52
2019-04-22T16:14:44.995Z,2.30
2019-04-22T16:17:10.485Z,2.37
2019-04-22T16:19:39.365Z,2.52
2019-04-22T16:22:13.420Z,2.67
2019-04-22T16:25:00.534Z,2.30
2019-04-22T16:27:30.190Z,2.52
2019-04-22T16:29:59.399Z,2.60
2019-04-22T16:32:29.750Z,2.10
2019-04-22T16:34:58.948Z,2.62
2019-04-22T16:37:28.753Z,2.40
2019-04-22T16:39:58.914Z,2.60
2019-04-22T16:42:38.084Z,2.20
2019-04-22T16:44:59.538Z,2.70
2019-04-22T16:47:29.437Z,2.22
2019-04-22T16:49:59.484Z,2.22
2019-04-22T16:52:28.419Z,2.75
2019-04-22T16:54:57.177Z,2.52
2019-04-22T16:57:26.120Z,2.60
2019-04-22T16:59:55.048Z,2.42
2019-04-22T17:02:26.499Z,2.67
2019-04-22T17:04:59.817Z,2.30
2019-04-22T17:07:29.891Z,2.70
2019-04-22T17:09:59.794Z,2.30
2019-04-22T17:12:40.832Z,2.10
2019-04-22T17:15:04.308Z,2.27
2019-04-22T17:17:30.816Z,2.15
2019-04-22T17:19:59.692Z,1.90
2019-04-22T17:22:29.544Z,2.02
2019-04-22T17:24:58.449Z,2.55
2019-04-22T17:27:28.233Z,1.90
2019-04-22T17:29:58.885Z,2.08
2019-04-22T17:32:28.794Z,2.22
2019-04-22T17:34:57.733Z,2.05
2019-04-22T17:37:30.027Z,2.02
2019-04-22T17:40:16.834Z,2.50
2019-04-22T17:42:46.176Z,2.12
2019-04-22T17:45:33.805Z,2.27
2019-04-22T17:48:27.685Z,2.85
2019-04-22T17:53:54.191Z,2.40
2019-04-22T17:56:23.243Z,2.58
2019-04-22T17:58:51.169Z,2.72
2019-04-22T18:01:17.921Z,2.30
2019-04-22T18:03:37.504Z,2.77
2019-04-22T18:06:04.571Z,2.45
2019-04-22T18:08:50.096Z,2.80
2019-04-22T18:11:29.095Z,2.30
2019-04-22T18:13:52.007Z,2.50
2019-04-22T18:16:25.796Z,2.58
2019-04-22T18:18:52.933Z,1.95
2019-04-22T18:21:17.368Z,2.30
2019-04-22T18:23:44.643Z,2.98
2019-04-22T18:26:22.895Z,2.70
2019-04-22T18:28:55.898Z,2.90
2019-04-22T18:31:17.412Z,2.60
2019-04-22T18:33:50.283Z,2.85
2019-04-22T18:36:23.853Z,2.10
2019-04-22T18:39:18.914Z,2.62
2019-04-22T18:41:23.682Z,2.35
2019-04-22T18:44:00.260Z,2.90
2019-04-22T18:46:26.975Z,2.58
2019-04-22T18:49:00.573Z,2.67
2019-04-22T18:51:43.852Z,2.70
2019-04-22T18:54:16.265Z,2.42
2019-04-22T18:56:43.258Z,2.85
2019-04-22T18:59:03.691Z,2.50
2019-04-22T19:01:23.867Z,2.58
2019-04-22T19:04:03.956Z,2.30
2019-04-22T19:06:54.551Z,2.62
2019-04-22T19:09:16.998Z,2.45
2019-04-22T19:11:52.098Z,2.40
2019-04-22T19:14:17.830Z,2.45
2019-04-22T19:16:44.772Z,2.60
2019-04-22T19:19:38.361Z,2.62
2019-04-22T19:22:02.204Z,2.35
2019-04-22T19:24:28.960Z,2.72
2019-04-22T19:27:03.030Z,3.30
2019-04-22T19:29:33.605Z,2.72
2019-04-22T19:32:01.826Z,2.95
2019-04-22T19:34:31.720Z,2.92
2019-04-22T19:37:02.108Z,2.83
2019-04-22T19:39:34.104Z,2.90
2019-04-22T19:42:15.015Z,3.05
2019-04-22T19:44:41.157Z,2.90
2019-04-22T19:47:25.116Z,2.95
2019-04-22T19:49:45.514Z,2.50
2019-04-22T19:52:12.806Z,2.67
2019-04-22T19:54:41.977Z,2.70
2019-04-22T19:57:03.705Z,2.80
2019-04-22T19:59:36.400Z,2.77
2019-04-22T20:02:22.163Z,2.27
2019-04-22T20:05:22.062Z,2.83
2019-04-22T20:07:44.442Z,2.50
2019-04-22T20:10:20.556Z,2.25
2019-04-22T20:12:48.692Z,2.08
2019-04-22T20:15:15.643Z,2.22
2019-04-22T20:18:11.422Z,2.80
2019-04-22T20:20:29.249Z,2.35
2019-04-22T20:22:49.466Z,1.95
2019-04-22T20:25:12.811Z,2.25
2019-04-22T20:27:58.093Z,2.40
2019-04-22T20:30:23.528Z,2.10
2019-04-22T20:32:54.213Z,2.10
2019-04-22T20:35:26.508Z,2.08
2019-04-22T20:37:56.691Z,1.80
2019-04-22T20:40:47.350Z,2.30
2019-04-22T20:43:21.728Z,2.02
2019-04-22T20:45:46.211Z,2.15
2019-04-22T20:48:06.047Z,2.30
2019-04-22T20:50:48.135Z,2.22
2019-04-22T20:53:20.010Z,2.10
2019-04-22T20:55:47.860Z,2.05
2019-04-22T20:58:15.291Z,2.90
2019-04-22T21:00:40.637Z,2.37
2019-04-22T21:03:11.575Z,2.55
2019-04-22T21:05:44.758Z,2.50
2019-04-22T21:08:23.890Z,2.80
2019-04-22T21:10:49.051Z,2.20
2019-04-22T21:13:20.478Z,2.40
2019-04-22T21:15:59.248Z,2.50
2019-04-22T21:18:19.174Z,2.92
2019-04-22T21:20:56.217Z,2.72
2019-04-22T21:23:22.993Z,2.67
2019-04-22T21:25:57.256Z,2.10
2019-04-22T21:28:30.849Z,2.70
2019-04-22T21:30:53.967Z,2.55
2019-04-22T21:33:19.561Z,2.55
2019-04-22T21:36:08.430Z,2.85
2019-04-22T21:38:29.243Z,2.87
2019-04-22T21:40:56.746Z,2.50
2019-04-22T21:43:31.983Z,2.72
2019-04-22T21:46:04.167Z,3.05
2019-04-22T21:48:37.547Z,2.80
2019-04-22T21:51:08.618Z,2.90
2019-04-22T21:53:41.724Z,3.10
2019-04-22T21:56:13.007Z,3.35
2019-04-22T21:58:48.287Z,3.08
2019-04-22T22:01:47.210Z,2.90
2019-04-22T22:04:04.781Z,3.08
2019-04-22T22:06:27.034Z,3.15
2019-04-22T22:09:02.445Z,3.40
2019-04-22T22:11:33.900Z,2.90
2019-04-22T22:14:04.526Z,2.87
2019-04-22T22:16:27.386Z,4.03
2019-04-22T22:19:09.829Z,3.22
2019-04-22T22:24:08.681Z,3.60
2019-04-22T22:26:40.086Z,3.67
2019-04-22T22:29:12.179Z,3.27
2019-04-22T22:31:43.191Z,3.30
2019-04-22T22:34:09.737Z,3.58
2019-04-22T22:36:33.278Z,3.25
2019-04-22T22:39:05.753Z,3.00
2019-04-22T22:41:18.350Z,3.30
2019-04-22T22:43:51.007Z,3.20
2019-04-22T22:46:29.560Z,3.12
2019-04-22T22:49:17.484Z,3.35
2019-04-22T22:51:51.811Z,3.65
2019-04-22T22:54:12.179Z,3.02
2019-04-22T22:56:47.497Z,3.45
2019-04-22T22:59:11.171Z,3.20
2019-04-22T23:01:40.788Z,3.35
2019-04-22T23:04:11.067Z,4.25
2019-04-22T23:06:48.319Z,3.40
2019-04-22T23:09:09.295Z,3.45
2019-04-22T23:11:56.832Z,3.50
2019-04-22T23:14:15.815Z,3.47
2019-04-22T23:16:31.180Z,3.75
2019-04-22T23:19:06.450Z,3.52
2019-04-22T23:21:41.648Z,3.60
2019-04-22T23:24:38.325Z,4.55
2019-04-22T23:27:00.246Z,3.37
2019-04-22T23:29:25.352Z,3.42
2019-04-22T23:32:00.349Z,4.03
2019-04-22T23:34:32.711Z,3.70
2019-04-22T23:37:06.971Z,3.60
2019-04-22T23:39:52.211Z,4.45
2019-04-22T23:42:13.171Z,4.40
2019-04-22T23:44:42.282Z,4.20
2019-04-22T23:47:06.125Z,4.78
2019-04-22T23:49:32.179Z,4.50
2019-04-22T23:52:18.128Z,5.08
2019-04-22T23:54:49.637Z,5.00
2019-04-22T23:57:08.492Z,5.53
